Tuesday, December 18, 2018, 4:17 PM EST
Back to Local

KWST, Westerly State Airport

Location: Westerly, RI, United States Lat: 41.35
Local Time: 4:17 PM EST (21:17 GMT) Lon: -71.8
Time Zone: US/Eastern Elev: 82 ft

Show me the last for .
Show Coded

Time T Td Feel RH Dir Speed Gust Alt SLP Vis Weather Sky Remarks
2018-12-18 15:53 33 11 22 39 300° 8 20 29.99 29.99 10 CLR None
2018-12-18 14:53 35 11 24 36 310° 12 22 29.96 29.96 10 CLR None
2018-12-18 13:53 35 11 22 36 320° 17 29 29.94 29.94 10 CLR Peak wind: 31 mph (27 kts) from 330° at 33 min
2018-12-18 12:53 34 11 21 37 310° 12 28 29.91 29.91 10 CLR 6-hr Min Temp (1pm): 27.0°F
6-hr Max Temp (1pm): 35.1°F
2018-12-18 11:53 33 10 19 37 340° 15 31 29.89 29.89 10 CLR Peak wind: 34 mph (30 kts) from 340° at 00 min
2018-12-18 10:53 31 9 15 39 330° 17 37 29.89 29.88 10 CLR Peak wind: 37 mph (33 kts) from 320° at 59 min
2018-12-18 09:53 30 9 13 40 320° 15 39 29.89 29.89 10 CLR Peak wind: 39 mph (34 kts) from 330° at 46 min
2018-12-18 08:53 28 9 12 43 310° 17 29 29.87 29.87 10 CLR Peak wind: 31 mph (27 kts) from 280° at 40 min
2018-12-18 07:53 27 9 11 45 320° 17 28 29.85 29.85 10 CLR Peak wind: 34 mph (30 kts) from 310° at 05 min
2018-12-18 06:53 27 9 12 45 300° 14 23 29.82 29.82 10 CLR Peak wind: 29 mph (26 kts) from 300° at 21 min
6-hr Min Temp (7am): 27.0°F
6-hr Max Temp (7am): 39.9°F
2018-12-18 05:53 28 11 13 48 320° 16 25 29.79 29.79 10 CLR Peak wind: 35 mph (31 kts) from 320° at 00 min
2018-12-18 04:53 30 14 15 50 320° 14 28 29.74 29.74 10 CLR Peak wind: 36 mph (32 kts) from 290° at 06 min
2018-12-18 03:53 33 18 20 53 300° 12 25 29.71 29.70 10 SCT041 Peak wind: 31 mph (27 kts) from 290° at 09 min
2018-12-18 02:53 37 19 24 47 290° 14 32 29.68 29.67 10 OVC047 Peak wind: 32 mph (28 kts) from 290° at 48 min
2018-12-18 01:53 38 20 26 47 290° 10 28 29.67 29.67 10 BKN070 None
2018-12-18 00:53 40 23 28 50 300° 12 30 29.64 29.64 10 FEW040 BKN050 OVC070 Peak wind: 29 mph (26 kts) from 270° at 41 min
1-hr Precip Total: Trace
6-hr Precip Total (1am): 0.00"
6-hr Min Temp (1am): 39.9°F
6-hr Max Temp (1am): 43.0°F
2018-12-17 23:53 41 29 32 61 290° 12 21 29.64 29.64 10 FEW036 BKN049 OVC080 1-hr Precip Total: Trace
24-hr Min Temp (12am): 39.0°F
24-hr Max Temp (12am): 46.0°F
2018-12-17 22:53 41 30 36 64 270° 8 - 29.65 29.65 10 SCT037 BKN047 OVC080 1-hr Precip Total: Trace
2018-12-17 21:53 42 29 37 59 270° 9 - 29.66 29.66 10 OVC080 None
2018-12-17 20:53 41 29 37 61 270° 6 - 29.66 29.66 10 OVC080 None
2018-12-17 19:53 41 28 37 59 Variable 6 - 29.65 29.65 10 CLR None
2018-12-17 18:53 43 27 38 52 280° 9 - 29.64 29.64 10 OVC060 6-hr Min Temp (7pm): 43.0°F
6-hr Max Temp (7pm): 46.0°F
2018-12-17 17:53 44 27 35 50 290° 10 22 29.62 29.62 10 FEW065 None
2018-12-17 16:53 45 29 36 53 280° 9 24 29.61 29.61 10 FEW043 OVC060 None

Support USWX by starting your Amazon purchase here.